Hlavní strana
METAR-TAF:

METAR-TAF

Letiště :

Jakutsk, Rusko

zeměpisná šířka: 62-01N, zeměpisná délka: 129-43E, výška: 103 m

Aktuální stav počasí

Zpráva byla vytvořena před 21 minutami, v 07:00 UTC
Západojihozápadní vítr 4 kt
Teplota -41°C
Vlhkost vzduchu 65%
Tlak 1033 hPa
Viditelnost 10 km a více
Žádná oblačnost pod 1500 m, nevyskytují se cumulonimby.

METAR: UEEE 200700Z 25002MPS CAVOK M41/M45 Q1033 R23L/490150 NOSIG RMK QFE766

Čas: 16:21 (07:21 UTC)

Předpověď počasí

Zpráva byla vytvořena před 2 hodinami a 21 minutami, v 05:00 UTC
Předpověď platná od 20 v 06 UTC do 21 v 12 UTC
Západojihozápadní vítr 6 kt
Viditelnost: 3200 m
kouřmo
Dočasný
od 20 v 06 UTC do 20 v 21 UTC
Viditelnost: 0300 m
ve výšce 300 ft
mlha

TAF: UEEE 200500Z 2006/2112 25003MPS 3200 BR NSC TXM40/2006Z TNM45/2023Z TEMPO 2006/2021 0300 FG VV003

Stav a předpovědi počasí z více než 4 000 letišť (zprávy METAR a TAF).

Červené a žluté tečky na mapě představují dostupné meteorologické stanice.

Když kurzor umístíte na tečku, zobrazí se název stanice.

Pak kliknutím zobrazíte stav a předpověď počasí.

Chcete-li změnit mapu, kliknutím na zelené tlačítko se znaménkem +mapu přiblížíte, kliknutím na zelené tlačítko se znaménkem – mapu oddálíte a kliknutím na zelené šipky přejdete na sousední mapy.


METAR-TAF: